EKSBEKOD

Guest
Details From EKSB - Sonderborg
To EKOD - Odense
Flight Number -
Tags generated
Created
Modified
Stats Distance 39 nm / 72 km
Max Altitude 2,800 ft / 853 m
Waypoints 3
Social Downloads 9
Likes 0
Share VATSIM

Download

Looking for another format? Having issues loading an existing format? Contact us
Advertisement - Login to hide

Notes

Basic altitude profile: - Ascent Rate: 2500ft/min - Ascent Speed: 250kts - Cruise Altitude: 35000ft - Cruise Speed: 420kts - Descent Rate: 1500ft/min - Descent Speed: 250kts Options: - Use NATs: yes - Use PACOTS: yes - Use low airways: yes - Use high airways: yes

Route

EKSB ASBIL EKOD

ID Type Via Altitude (ft/m) Position (lat/lon) Dist (leg/tot) Name
O EKSB APT - 0 / 0 54.96283 / 9.79402 - / 0 nm Sonderborg
ASBIL FIX - 2,800 / 853 55.37194 / 9.99389 25 / 25 nm
O EKOD APT - 0 / 0 55.47529 / 10.33326 13 / 38 nm Odense

Altitude Profile

Advertisement - Login to hide

EKSB

Details ICAO EKSB (SGD)
Name Sonderborg
Region Denmark / Faroe Islands
Timezone Europe/Copenhagen (UTC+1.0)
Stats Elevation 23 ft / 7 m (AMSL)
Location 54.962800° 9.794010°
Runways 1
Magnetic Variation 2.887° E

METAR

EKSB 160720Z AUTO 14016KT 9999NDV OVC030/// 02/M03 Q1015

Decode

TAF

Not found

Departure Runways

ID Width Length Bearing (true/mag) Surface Threshold Overrun Markings Lighting
14 98 ft / 30 m 5,883 ft / 1,793 m 139.41° / 136.53° ASPHALT 0 ft / 0 m 0 ft / 0 m APP EDGE THRESHOLD SSALF REIL-UNI
32 98 ft / 30 m 5,883 ft / 1,793 m 319.43° / 316.54° ASPHALT 0 ft / 0 m 0 ft / 0 m PREC-APP EDGE THRESHOLD ALSF-I REIL-UNI

EKOD

Details ICAO EKOD (ODE)
Name Hans Christioan Andersen
Region Denmark / Faroe Islands
Timezone Europe/Copenhagen (UTC+1.0)
Stats Elevation 56 ft / 17 m (AMSL)
Location 55.475300° 10.326800°
Runways 1
Magnetic Variation 3.079° E

METAR

EKOD 160720Z 12011KT 9999 FEW024 M00/M01 Q1017

Decode

TAF

Not found

Destination Runways

ID Width Length Bearing (true/mag) Surface Threshold Overrun Markings Lighting
06 148 ft / 45 m 6,546 ft / 1,995 m 59.70° / 56.62° ASPHALT 0 ft / 0 m 0 ft / 0 m PREC-APP CENTERLINE EDGE THRESHOLD SSALF REIL-OMNI
24 148 ft / 45 m 6,546 ft / 1,995 m 239.72° / 236.64° ASPHALT 0 ft / 0 m 984 ft / 300 m PREC-APP CENTERLINE EDGE THRESHOLD ALSF-I REIL-OMNI

Approach Navaids

Runway Type Ident Frequency Range Bearing (true/mag) Slope Elevation
24 DME OD 108.35 MHz 18 nm / 33 km - - 56 ft / 17 m (AMSL)
24 LOC-ILS OD 108.35 MHz 18 nm / 33 km 239.70° / 236.62 ° - 56 ft / 17 m (AMSL)
24 GS OD 108.35 MHz 10 nm / 19 km 240.43° / 237.35 ° 3.00° 56 ft / 17 m (AMSL)